sensor_id;sensor_type;location;lat;lon;timestamp;P1;durP1;ratioP1;P2;durP2;ratioP2
73172;SDS011;61388;54.962;73.394;2022-10-22T00:04:05;64.65;;;60.28;;
73172;SDS011;61388;54.962;73.394;2022-10-22T00:06:42;66.82;;;62.00;;
73172;SDS011;61388;54.962;73.394;2022-10-22T00:09:13;72.47;;;67.07;;
73172;SDS011;61388;54.962;73.394;2022-10-22T00:11:39;60.30;;;56.13;;
73172;SDS011;61388;54.962;73.394;2022-10-22T00:14:05;67.27;;;61.97;;
73172;SDS011;61388;54.962;73.394;2022-10-22T00:16:31;61.33;;;56.53;;
73172;SDS011;61388;54.962;73.394;2022-10-22T00:18:57;51.40;;;47.58;;
73172;SDS011;61388;54.962;73.394;2022-10-22T00:21:26;41.28;;;36.90;;
73172;SDS011;61388;54.962;73.394;2022-10-22T00:24:03;287.30;;;113.50;;
73172;SDS011;61388;54.962;73.394;2022-10-22T00:26:29;316.77;;;119.23;;
73172;SDS011;61388;54.962;73.394;2022-10-22T00:28:55;186.52;;;82.57;;
73172;SDS011;61388;54.962;73.394;2022-10-22T00:34:22;202.73;;;86.28;;
73172;SDS011;61388;54.962;73.394;2022-10-22T00:36:48;324.75;;;117.53;;
73172;SDS011;61388;54.962;73.394;2022-10-22T00:39:15;308.30;;;107.97;;
73172;SDS011;61388;54.962;73.394;2022-10-22T00:41:44;170.35;;;75.88;;
73172;SDS011;61388;54.962;73.394;2022-10-22T00:47:05;109.47;;;62.72;;
73172;SDS011;61388;54.962;73.394;2022-10-22T00:49:37;63.33;;;52.55;;
73172;SDS011;61388;54.962;73.394;2022-10-22T00:52:03;60.73;;;53.67;;
73172;SDS011;61388;54.962;73.394;2022-10-22T00:54:33;58.58;;;52.72;;
73172;SDS011;61388;54.962;73.394;2022-10-22T00:57:04;63.33;;;57.05;;
73172;SDS011;61388;54.962;73.394;2022-10-22T00:59:30;60.45;;;54.88;;
73172;SDS011;61388;54.962;73.394;2022-10-22T01:01:56;69.77;;;63.77;;
73172;SDS011;61388;54.962;73.394;2022-10-22T01:04:33;70.72;;;64.43;;
73172;SDS011;61388;54.962;73.394;2022-10-22T01:12:50;67.57;;;61.43;;
73172;SDS011;61388;54.962;73.394;2022-10-22T01:17:58;61.38;;;55.42;;
73172;SDS011;61388;54.962;73.394;2022-10-22T01:23:16;50.72;;;46.42;;
73172;SDS011;61388;54.962;73.394;2022-10-22T01:25:53;58.83;;;53.57;;
73172;SDS011;61388;54.962;73.394;2022-10-22T01:31:04;55.60;;;44.80;;
73172;SDS011;61388;54.962;73.394;2022-10-22T01:33:40;43.63;;;39.45;;
73172;SDS011;61388;54.962;73.394;2022-10-22T01:36:07;44.25;;;37.15;;
73172;SDS011;61388;54.962;73.394;2022-10-22T01:38:44;40.27;;;32.03;;
73172;SDS011;61388;54.962;73.394;2022-10-22T01:41:11;31.38;;;26.75;;
73172;SDS011;61388;54.962;73.394;2022-10-22T01:43:37;38.50;;;26.58;;
73172;SDS011;61388;54.962;73.394;2022-10-22T01:46:03;33.65;;;27.08;;
73172;SDS011;61388;54.962;73.394;2022-10-22T01:51:18;38.00;;;26.47;;
73172;SDS011;61388;54.962;73.394;2022-10-22T01:56:45;63.08;;;29.15;;
73172;SDS011;61388;54.962;73.394;2022-10-22T02:02:03;35.58;;;26.25;;
73172;SDS011;61388;54.962;73.394;2022-10-22T02:06:57;37.30;;;23.75;;
73172;SDS011;61388;54.962;73.394;2022-10-22T02:09:33;36.72;;;29.38;;
73172;SDS011;61388;54.962;73.394;2022-10-22T02:12:03;41.80;;;31.95;;
73172;SDS011;61388;54.962;73.394;2022-10-22T02:14:30;36.73;;;31.07;;
73172;SDS011;61388;54.962;73.394;2022-10-22T02:16:58;48.53;;;29.25;;
73172;SDS011;61388;54.962;73.394;2022-10-22T02:22:09;38.92;;;29.40;;
73172;SDS011;61388;54.962;73.394;2022-10-22T02:24:35;41.78;;;28.70;;
73172;SDS011;61388;54.962;73.394;2022-10-22T02:32:32;37.90;;;32.33;;
73172;SDS011;61388;54.962;73.394;2022-10-22T02:34:59;45.78;;;30.77;;
73172;SDS011;61388;54.962;73.394;2022-10-22T02:37:25;41.15;;;28.30;;
73172;SDS011;61388;54.962;73.394;2022-10-22T02:42:36;35.38;;;28.52;;
73172;SDS011;61388;54.962;73.394;2022-10-22T02:47:51;35.85;;;26.92;;
73172;SDS011;61388;54.962;73.394;2022-10-22T02:53:06;30.07;;;20.90;;
73172;SDS011;61388;54.962;73.394;2022-10-22T02:58:17;29.90;;;23.02;;
73172;SDS011;61388;54.962;73.394;2022-10-22T03:00:43;27.58;;;21.20;;
73172;SDS011;61388;54.962;73.394;2022-10-22T03:03:09;30.65;;;27.48;;
73172;SDS011;61388;54.962;73.394;2022-10-22T03:05:45;38.13;;;34.88;;
73172;SDS011;61388;54.962;73.394;2022-10-22T03:08:16;38.72;;;35.20;;
73172;SDS011;61388;54.962;73.394;2022-10-22T03:10:42;39.40;;;36.13;;
73172;SDS011;61388;54.962;73.394;2022-10-22T03:13:13;34.05;;;30.85;;
73172;SDS011;61388;54.962;73.394;2022-10-22T03:15:39;39.37;;;36.30;;
73172;SDS011;61388;54.962;73.394;2022-10-22T03:18:15;33.95;;;30.60;;
73172;SDS011;61388;54.962;73.394;2022-10-22T03:21:03;36.67;;;33.03;;
73172;SDS011;61388;54.962;73.394;2022-10-22T03:26:20;37.50;;;33.22;;
73172;SDS011;61388;54.962;73.394;2022-10-22T03:28:46;37.20;;;33.90;;
73172;SDS011;61388;54.962;73.394;2022-10-22T03:31:23;36.15;;;32.88;;
73172;SDS011;61388;54.962;73.394;2022-10-22T03:36:41;39.47;;;35.63;;
73172;SDS011;61388;54.962;73.394;2022-10-22T03:39:07;41.70;;;37.72;;
73172;SDS011;61388;54.962;73.394;2022-10-22T03:41:33;46.20;;;42.20;;
73172;SDS011;61388;54.962;73.394;2022-10-22T03:44:00;44.83;;;40.50;;
73172;SDS011;61388;54.962;73.394;2022-10-22T03:46:26;52.38;;;47.63;;
73172;SDS011;61388;54.962;73.394;2022-10-22T03:48:57;50.00;;;46.15;;
73172;SDS011;61388;54.962;73.394;2022-10-22T03:51:25;54.53;;;49.47;;
73172;SDS011;61388;54.962;73.394;2022-10-22T03:53:51;51.87;;;46.83;;
73172;SDS011;61388;54.962;73.394;2022-10-22T03:56:17;47.35;;;43.28;;
73172;SDS011;61388;54.962;73.394;2022-10-22T03:58:43;43.50;;;39.95;;
73172;SDS011;61388;54.962;73.394;2022-10-22T04:01:10;37.33;;;33.35;;
73172;SDS011;61388;54.962;73.394;2022-10-22T04:03:36;41.50;;;37.10;;
73172;SDS011;61388;54.962;73.394;2022-10-22T04:06:03;43.67;;;39.65;;
73172;SDS011;61388;54.962;73.394;2022-10-22T04:08:30;39.50;;;36.17;;
73172;SDS011;61388;54.962;73.394;2022-10-22T04:10:56;38.17;;;34.92;;
73172;SDS011;61388;54.962;73.394;2022-10-22T04:16:14;56.37;;;51.40;;
73172;SDS011;61388;54.962;73.394;2022-10-22T04:18:40;59.35;;;54.42;;
73172;SDS011;61388;54.962;73.394;2022-10-22T04:21:07;59.90;;;54.10;;
73172;SDS011;61388;54.962;73.394;2022-10-22T04:26:19;56.47;;;51.33;;
73172;SDS011;61388;54.962;73.394;2022-10-22T04:28:46;59.47;;;55.07;;
73172;SDS011;61388;54.962;73.394;2022-10-22T04:31:13;55.75;;;51.45;;
73172;SDS011;61388;54.962;73.394;2022-10-22T04:36:24;84.93;;;71.60;;
73172;SDS011;61388;54.962;73.394;2022-10-22T04:44:29;77.53;;;72.53;;
73172;SDS011;61388;54.962;73.394;2022-10-22T04:46:55;72.60;;;67.50;;
73172;SDS011;61388;54.962;73.394;2022-10-22T04:49:21;76.57;;;71.07;;
73172;SDS011;61388;54.962;73.394;2022-10-22T04:51:47;80.50;;;74.53;;
73172;SDS011;61388;54.962;73.394;2022-10-22T04:54:13;76.33;;;71.53;;
73172;SDS011;61388;54.962;73.394;2022-10-22T04:56:39;81.22;;;76.25;;
73172;SDS011;61388;54.962;73.394;2022-10-22T04:59:06;70.57;;;65.88;;
73172;SDS011;61388;54.962;73.394;2022-10-22T05:01:33;58.50;;;54.27;;
73172;SDS011;61388;54.962;73.394;2022-10-22T05:04:01;52.40;;;48.75;;
73172;SDS011;61388;54.962;73.394;2022-10-22T05:06:28;45.50;;;41.80;;
73172;SDS011;61388;54.962;73.394;2022-10-22T05:08:55;56.47;;;52.63;;
73172;SDS011;61388;54.962;73.394;2022-10-22T05:11:23;58.45;;;54.63;;
73172;SDS011;61388;54.962;73.394;2022-10-22T05:13:49;46.00;;;42.77;;
73172;SDS011;61388;54.962;73.394;2022-10-22T05:16:15;41.60;;;37.72;;
73172;SDS011;61388;54.962;73.394;2022-10-22T05:18:51;32.58;;;29.80;;
73172;SDS011;61388;54.962;73.394;2022-10-22T05:21:28;30.33;;;27.83;;
73172;SDS011;61388;54.962;73.394;2022-10-22T05:23:54;30.27;;;27.48;;
73172;SDS011;61388;54.962;73.394;2022-10-22T05:26:21;35.77;;;32.43;;
73172;SDS011;61388;54.962;73.394;2022-10-22T05:28:52;51.55;;;47.47;;
73172;SDS011;61388;54.962;73.394;2022-10-22T05:31:19;43.50;;;39.83;;
73172;SDS011;61388;54.962;73.394;2022-10-22T05:33:45;46.08;;;41.83;;
73172;SDS011;61388;54.962;73.394;2022-10-22T05:36:12;42.75;;;38.63;;
73172;SDS011;61388;54.962;73.394;2022-10-22T05:38:38;48.43;;;43.77;;
73172;SDS011;61388;54.962;73.394;2022-10-22T05:41:08;51.08;;;39.00;;
73172;SDS011;61388;54.962;73.394;2022-10-22T05:43:41;44.30;;;40.47;;
73172;SDS011;61388;54.962;73.394;2022-10-22T05:46:17;45.92;;;41.70;;
73172;SDS011;61388;54.962;73.394;2022-10-22T05:48:47;71.20;;;66.53;;
73172;SDS011;61388;54.962;73.394;2022-10-22T05:51:13;49.07;;;45.67;;
73172;SDS011;61388;54.962;73.394;2022-10-22T05:53:40;57.13;;;51.05;;
73172;SDS011;61388;54.962;73.394;2022-10-22T05:56:13;50.08;;;46.40;;
73172;SDS011;61388;54.962;73.394;2022-10-22T05:58:40;42.70;;;38.83;;
73172;SDS011;61388;54.962;73.394;2022-10-22T06:01:12;44.35;;;40.42;;
73172;SDS011;61388;54.962;73.394;2022-10-22T06:03:43;47.60;;;43.30;;
73172;SDS011;61388;54.962;73.394;2022-10-22T06:06:20;29.35;;;26.50;;
73172;SDS011;61388;54.962;73.394;2022-10-22T06:08:47;19.77;;;17.80;;
73172;SDS011;61388;54.962;73.394;2022-10-22T06:11:20;33.78;;;30.67;;
73172;SDS011;61388;54.962;73.394;2022-10-22T06:13:46;24.55;;;22.10;;
73172;SDS011;61388;54.962;73.394;2022-10-22T06:16:13;28.17;;;25.40;;
73172;SDS011;61388;54.962;73.394;2022-10-22T06:18:39;22.80;;;20.55;;
73172;SDS011;61388;54.962;73.394;2022-10-22T06:21:11;29.42;;;26.33;;
73172;SDS011;61388;54.962;73.394;2022-10-22T06:23:38;23.10;;;17.77;;
73172;SDS011;61388;54.962;73.394;2022-10-22T06:26:07;22.67;;;19.30;;
73172;SDS011;61388;54.962;73.394;2022-10-22T06:28:34;25.73;;;21.77;;
73172;SDS011;61388;54.962;73.394;2022-10-22T06:31:03;18.25;;;16.38;;
73172;SDS011;61388;54.962;73.394;2022-10-22T06:33:31;24.08;;;16.45;;
73172;SDS011;61388;54.962;73.394;2022-10-22T06:36:06;25.42;;;18.52;;
73172;SDS011;61388;54.962;73.394;2022-10-22T06:38:43;20.08;;;16.67;;
73172;SDS011;61388;54.962;73.394;2022-10-22T06:41:10;26.10;;;22.83;;
73172;SDS011;61388;54.962;73.394;2022-10-22T06:43:37;26.58;;;17.38;;
73172;SDS011;61388;54.962;73.394;2022-10-22T06:46:19;20.05;;;15.85;;
73172;SDS011;61388;54.962;73.394;2022-10-22T06:48:53;25.38;;;22.73;;
73172;SDS011;61388;54.962;73.394;2022-10-22T06:51:20;23.25;;;20.45;;
73172;SDS011;61388;54.962;73.394;2022-10-22T06:53:46;26.60;;;23.90;;
73172;SDS011;61388;54.962;73.394;2022-10-22T06:56:14;24.63;;;22.08;;
73172;SDS011;61388;54.962;73.394;2022-10-22T06:58:41;23.95;;;21.63;;
73172;SDS011;61388;54.962;73.394;2022-10-22T07:01:11;26.15;;;23.38;;
73172;SDS011;61388;54.962;73.394;2022-10-22T07:03:38;21.65;;;19.23;;
73172;SDS011;61388;54.962;73.394;2022-10-22T07:06:05;25.33;;;23.03;;
73172;SDS011;61388;54.962;73.394;2022-10-22T07:08:31;23.38;;;21.13;;
73172;SDS011;61388;54.962;73.394;2022-10-22T07:11:08;23.95;;;21.35;;
73172;SDS011;61388;54.962;73.394;2022-10-22T07:13:34;27.98;;;25.25;;
73172;SDS011;61388;54.962;73.394;2022-10-22T07:16:01;25.58;;;22.08;;
73172;SDS011;61388;54.962;73.394;2022-10-22T07:18:29;21.63;;;16.13;;
73172;SDS011;61388;54.962;73.394;2022-10-22T07:20:55;23.10;;;15.27;;
73172;SDS011;61388;54.962;73.394;2022-10-22T07:23:32;29.73;;;14.73;;
73172;SDS011;61388;54.962;73.394;2022-10-22T07:25:58;22.73;;;15.88;;
73172;SDS011;61388;54.962;73.394;2022-10-22T07:28:24;24.92;;;14.18;;
73172;SDS011;61388;54.962;73.394;2022-10-22T07:30:50;25.03;;;16.27;;
73172;SDS011;61388;54.962;73.394;2022-10-22T07:33:16;28.20;;;17.85;;
73172;SDS011;61388;54.962;73.394;2022-10-22T07:35:42;28.42;;;23.27;;
73172;SDS011;61388;54.962;73.394;2022-10-22T07:38:08;28.73;;;17.00;;
73172;SDS011;61388;54.962;73.394;2022-10-22T07:40:35;32.80;;;18.20;;
73172;SDS011;61388;54.962;73.394;2022-10-22T07:43:01;27.80;;;24.10;;
73172;SDS011;61388;54.962;73.394;2022-10-22T07:45:27;23.30;;;20.90;;
73172;SDS011;61388;54.962;73.394;2022-10-22T07:47:53;30.58;;;25.23;;
73172;SDS011;61388;54.962;73.394;2022-10-22T07:50:19;25.98;;;18.25;;
73172;SDS011;61388;54.962;73.394;2022-10-22T07:52:45;18.63;;;14.57;;
73172;SDS011;61388;54.962;73.394;2022-10-22T07:55:14;19.60;;;15.43;;
73172;SDS011;61388;54.962;73.394;2022-10-22T07:57:50;22.17;;;15.40;;
73172;SDS011;61388;54.962;73.394;2022-10-22T08:00:17;24.67;;;17.50;;
73172;SDS011;61388;54.962;73.394;2022-10-22T08:02:44;24.40;;;16.80;;
73172;SDS011;61388;54.962;73.394;2022-10-22T08:05:10;24.27;;;20.75;;
73172;SDS011;61388;54.962;73.394;2022-10-22T08:07:38;23.50;;;18.07;;
73172;SDS011;61388;54.962;73.394;2022-10-22T08:10:05;22.48;;;15.50;;
73172;SDS011;61388;54.962;73.394;2022-10-22T08:12:31;17.95;;;14.05;;
73172;SDS011;61388;54.962;73.394;2022-10-22T08:14:58;24.50;;;14.50;;
73172;SDS011;61388;54.962;73.394;2022-10-22T08:17:45;22.45;;;13.73;;
73172;SDS011;61388;54.962;73.394;2022-10-22T08:20:32;19.57;;;14.70;;
73172;SDS011;61388;54.962;73.394;2022-10-22T08:22:59;86.05;;;40.97;;
73172;SDS011;61388;54.962;73.394;2022-10-22T08:25:26;22.98;;;16.02;;
73172;SDS011;61388;54.962;73.394;2022-10-22T08:28:03;16.50;;;13.77;;
73172;SDS011;61388;54.962;73.394;2022-10-22T08:31:05;18.67;;;12.32;;
73172;SDS011;61388;54.962;73.394;2022-10-22T08:33:35;23.00;;;14.93;;
73172;SDS011;61388;54.962;73.394;2022-10-22T08:36:01;23.17;;;13.23;;
73172;SDS011;61388;54.962;73.394;2022-10-22T08:38:35;20.35;;;13.40;;
73172;SDS011;61388;54.962;73.394;2022-10-22T08:41:06;17.85;;;14.27;;
73172;SDS011;61388;54.962;73.394;2022-10-22T08:48:42;18.75;;;12.38;;
73172;SDS011;61388;54.962;73.394;2022-10-22T08:51:11;17.60;;;12.73;;
73172;SDS011;61388;54.962;73.394;2022-10-22T08:56:27;23.55;;;19.40;;
73172;SDS011;61388;54.962;73.394;2022-10-22T08:58:55;17.87;;;14.23;;
73172;SDS011;61388;54.962;73.394;2022-10-22T09:04:09;21.52;;;19.23;;
73172;SDS011;61388;54.962;73.394;2022-10-22T09:06:36;21.30;;;15.07;;
73172;SDS011;61388;54.962;73.394;2022-10-22T09:09:10;14.13;;;12.65;;
73172;SDS011;61388;54.962;73.394;2022-10-22T09:11:43;16.07;;;14.03;;
73172;SDS011;61388;54.962;73.394;2022-10-22T09:14:17;20.23;;;18.13;;
73172;SDS011;61388;54.962;73.394;2022-10-22T09:20:08;17.60;;;13.48;;
73172;SDS011;61388;54.962;73.394;2022-10-22T09:22:32;47.10;;;42.15;;
73172;SDS011;61388;54.962;73.394;2022-10-22T09:25:12;19.67;;;17.00;;
73172;SDS011;61388;54.962;73.394;2022-10-22T09:27:49;42.30;;;33.70;;
73172;SDS011;61388;54.962;73.394;2022-10-22T09:30:21;24.33;;;21.83;;
73172;SDS011;61388;54.962;73.394;2022-10-22T09:32:49;84.10;;;74.45;;
73172;SDS011;61388;54.962;73.394;2022-10-22T09:35:20;32.13;;;28.75;;
73172;SDS011;61388;54.962;73.394;2022-10-22T09:37:47;21.50;;;18.60;;
73172;SDS011;61388;54.962;73.394;2022-10-22T09:40:14;24.27;;;19.15;;
73172;SDS011;61388;54.962;73.394;2022-10-22T09:42:41;41.90;;;37.85;;
73172;SDS011;61388;54.962;73.394;2022-10-22T09:45:14;23.75;;;21.45;;
73172;SDS011;61388;54.962;73.394;2022-10-22T09:47:41;33.00;;;25.73;;
73172;SDS011;61388;54.962;73.394;2022-10-22T09:52:44;36.08;;;25.77;;
73172;SDS011;61388;54.962;73.394;2022-10-22T09:55:15;45.50;;;38.92;;
73172;SDS011;61388;54.962;73.394;2022-10-22T09:57:54;20.45;;;18.40;;
73172;SDS011;61388;54.962;73.394;2022-10-22T10:00:21;48.95;;;43.83;;
73172;SDS011;61388;54.962;73.394;2022-10-22T10:02:59;178.17;;;138.07;;
73172;SDS011;61388;54.962;73.394;2022-10-22T10:05:29;30.10;;;27.17;;
73172;SDS011;61388;54.962;73.394;2022-10-22T10:07:56;38.80;;;35.10;;
73172;SDS011;61388;54.962;73.394;2022-10-22T10:10:33;33.33;;;28.40;;
73172;SDS011;61388;54.962;73.394;2022-10-22T10:15:53;23.53;;;21.00;;
73172;SDS011;61388;54.962;73.394;2022-10-22T10:21:27;43.45;;;39.08;;
73172;SDS011;61388;54.962;73.394;2022-10-22T10:23:57;94.97;;;80.07;;
73172;SDS011;61388;54.962;73.394;2022-10-22T10:26:34;24.10;;;21.73;;
73172;SDS011;61388;54.962;73.394;2022-10-22T10:34:01;59.70;;;52.97;;
73172;SDS011;61388;54.962;73.394;2022-10-22T10:39:07;67.93;;;63.17;;
73172;SDS011;61388;54.962;73.394;2022-10-22T10:41:45;80.57;;;74.25;;
73172;SDS011;61388;54.962;73.394;2022-10-22T10:46:42;157.98;;;133.48;;
73172;SDS011;61388;54.962;73.394;2022-10-22T10:49:17;58.92;;;54.00;;
73172;SDS011;61388;54.962;73.394;2022-10-22T10:51:58;38.30;;;34.67;;
73172;SDS011;61388;54.962;73.394;2022-10-22T10:55:12;57.60;;;52.45;;
73172;SDS011;61388;54.962;73.394;2022-10-22T11:02:59;175.00;;;151.20;;
73172;SDS011;61388;54.962;73.394;2022-10-22T11:05:27;91.43;;;82.90;;
73172;SDS011;61388;54.962;73.394;2022-10-22T11:07:56;75.90;;;69.75;;
73172;SDS011;61388;54.962;73.394;2022-10-22T11:10:29;81.53;;;75.03;;
73172;SDS011;61388;54.962;73.394;2022-10-22T11:12:58;93.00;;;85.45;;
73172;SDS011;61388;54.962;73.394;2022-10-22T11:15:30;121.68;;;109.97;;
73172;SDS011;61388;54.962;73.394;2022-10-22T11:18:09;121.10;;;108.73;;
73172;SDS011;61388;54.962;73.394;2022-10-22T11:20:43;71.97;;;65.97;;
73172;SDS011;61388;54.962;73.394;2022-10-22T11:23:13;62.70;;;57.05;;
73172;SDS011;61388;54.962;73.394;2022-10-22T11:25:44;88.47;;;80.47;;
73172;SDS011;61388;54.962;73.394;2022-10-22T11:28:22;65.18;;;59.63;;
73172;SDS011;61388;54.962;73.394;2022-10-22T11:30:52;66.73;;;59.53;;
73172;SDS011;61388;54.962;73.394;2022-10-22T11:33:20;53.30;;;47.63;;
73172;SDS011;61388;54.962;73.394;2022-10-22T11:35:49;46.00;;;41.03;;
73172;SDS011;61388;54.962;73.394;2022-10-22T11:38:24;39.78;;;35.75;;
73172;SDS011;61388;54.962;73.394;2022-10-22T11:43:31;36.87;;;31.80;;
73172;SDS011;61388;54.962;73.394;2022-10-22T11:48:39;39.45;;;35.00;;
73172;SDS011;61388;54.962;73.394;2022-10-22T11:51:27;37.08;;;26.27;;
73172;SDS011;61388;54.962;73.394;2022-10-22T11:53:54;40.38;;;30.30;;
73172;SDS011;61388;54.962;73.394;2022-10-22T11:56:22;37.43;;;25.90;;
73172;SDS011;61388;54.962;73.394;2022-10-22T11:58:49;39.83;;;26.77;;
73172;SDS011;61388;54.962;73.394;2022-10-22T12:01:22;40.90;;;27.73;;
73172;SDS011;61388;54.962;73.394;2022-10-22T12:03:53;40.80;;;27.10;;
73172;SDS011;61388;54.962;73.394;2022-10-22T12:06:54;38.80;;;26.70;;
73172;SDS011;61388;54.962;73.394;2022-10-22T12:09:21;40.03;;;26.53;;
73172;SDS011;61388;54.962;73.394;2022-10-22T12:11:49;37.35;;;25.63;;
73172;SDS011;61388;54.962;73.394;2022-10-22T12:16:53;36.22;;;23.95;;
73172;SDS011;61388;54.962;73.394;2022-10-22T12:19:28;37.60;;;26.55;;
73172;SDS011;61388;54.962;73.394;2022-10-22T12:22:01;141.80;;;99.30;;
73172;SDS011;61388;54.962;73.394;2022-10-22T12:24:37;71.88;;;61.00;;
73172;SDS011;61388;54.962;73.394;2022-10-22T12:27:21;60.25;;;45.95;;
73172;SDS011;61388;54.962;73.394;2022-10-22T12:29:48;46.08;;;29.38;;
73172;SDS011;61388;54.962;73.394;2022-10-22T12:32:14;51.38;;;38.67;;
73172;SDS011;61388;54.962;73.394;2022-10-22T12:34:45;50.33;;;42.87;;
73172;SDS011;61388;54.962;73.394;2022-10-22T12:37:22;55.92;;;37.50;;
73172;SDS011;61388;54.962;73.394;2022-10-22T12:39:48;47.25;;;36.95;;
73172;SDS011;61388;54.962;73.394;2022-10-22T12:42:15;47.22;;;41.67;;
73172;SDS011;61388;54.962;73.394;2022-10-22T12:44:44;46.17;;;37.50;;
73172;SDS011;61388;54.962;73.394;2022-10-22T12:47:14;51.05;;;41.83;;
73172;SDS011;61388;54.962;73.394;2022-10-22T12:49:47;52.35;;;46.88;;
73172;SDS011;61388;54.962;73.394;2022-10-22T12:52:23;57.35;;;49.65;;
73172;SDS011;61388;54.962;73.394;2022-10-22T12:54:56;59.63;;;53.25;;
73172;SDS011;61388;54.962;73.394;2022-10-22T12:57:27;52.60;;;45.70;;
73172;SDS011;61388;54.962;73.394;2022-10-22T12:59:53;51.75;;;46.40;;
73172;SDS011;61388;54.962;73.394;2022-10-22T13:02:23;176.57;;;151.23;;
73172;SDS011;61388;54.962;73.394;2022-10-22T13:08:00;59.90;;;53.58;;
73172;SDS011;61388;54.962;73.394;2022-10-22T13:10:32;104.70;;;89.50;;
73172;SDS011;61388;54.962;73.394;2022-10-22T13:12:58;64.57;;;55.88;;
73172;SDS011;61388;54.962;73.394;2022-10-22T13:15:34;138.23;;;125.13;;
73172;SDS011;61388;54.962;73.394;2022-10-22T13:18:01;94.85;;;81.00;;
73172;SDS011;61388;54.962;73.394;2022-10-22T13:20:28;85.28;;;74.20;;
73172;SDS011;61388;54.962;73.394;2022-10-22T13:22:57;68.33;;;58.77;;
73172;SDS011;61388;54.962;73.394;2022-10-22T13:25:30;62.08;;;49.58;;
73172;SDS011;61388;54.962;73.394;2022-10-22T13:27:57;56.78;;;50.95;;
73172;SDS011;61388;54.962;73.394;2022-10-22T13:30:28;62.30;;;55.63;;
73172;SDS011;61388;54.962;73.394;2022-10-22T13:32:56;70.75;;;63.60;;
73172;SDS011;61388;54.962;73.394;2022-10-22T13:35:29;61.17;;;54.93;;
73172;SDS011;61388;54.962;73.394;2022-10-22T13:37:56;60.75;;;54.38;;
73172;SDS011;61388;54.962;73.394;2022-10-22T13:40:22;58.22;;;52.22;;
73172;SDS011;61388;54.962;73.394;2022-10-22T13:42:48;67.00;;;59.78;;
73172;SDS011;61388;54.962;73.394;2022-10-22T13:45:15;64.97;;;58.28;;
73172;SDS011;61388;54.962;73.394;2022-10-22T13:47:41;72.57;;;65.33;;
73172;SDS011;61388;54.962;73.394;2022-10-22T13:50:13;68.82;;;61.53;;
73172;SDS011;61388;54.962;73.394;2022-10-22T13:52:43;71.60;;;64.15;;
73172;SDS011;61388;54.962;73.394;2022-10-22T13:57:38;59.95;;;53.83;;
73172;SDS011;61388;54.962;73.394;2022-10-22T14:00:10;67.87;;;60.50;;
73172;SDS011;61388;54.962;73.394;2022-10-22T14:02:38;69.72;;;62.17;;
73172;SDS011;61388;54.962;73.394;2022-10-22T14:05:04;61.78;;;55.28;;
73172;SDS011;61388;54.962;73.394;2022-10-22T14:07:34;83.57;;;75.10;;
73172;SDS011;61388;54.962;73.394;2022-10-22T14:10:19;70.10;;;62.45;;
73172;SDS011;61388;54.962;73.394;2022-10-22T14:12:45;69.07;;;62.00;;
73172;SDS011;61388;54.962;73.394;2022-10-22T14:15:12;67.53;;;60.35;;
73172;SDS011;61388;54.962;73.394;2022-10-22T14:17:39;77.03;;;69.10;;
73172;SDS011;61388;54.962;73.394;2022-10-22T14:20:18;70.38;;;63.45;;
73172;SDS011;61388;54.962;73.394;2022-10-22T14:22:46;64.85;;;57.88;;
73172;SDS011;61388;54.962;73.394;2022-10-22T14:25:13;65.30;;;58.57;;
73172;SDS011;61388;54.962;73.394;2022-10-22T14:27:45;61.55;;;55.10;;
73172;SDS011;61388;54.962;73.394;2022-10-22T14:30:22;64.60;;;58.13;;
73172;SDS011;61388;54.962;73.394;2022-10-22T14:32:49;60.53;;;54.17;;
73172;SDS011;61388;54.962;73.394;2022-10-22T14:35:16;114.93;;;104.25;;
73172;SDS011;61388;54.962;73.394;2022-10-22T14:37:43;65.50;;;58.67;;
73172;SDS011;61388;54.962;73.394;2022-10-22T14:40:11;65.18;;;58.08;;
73172;SDS011;61388;54.962;73.394;2022-10-22T14:42:38;100.70;;;91.40;;
73172;SDS011;61388;54.962;73.394;2022-10-22T14:45:06;65.35;;;58.75;;
73172;SDS011;61388;54.962;73.394;2022-10-22T14:47:32;84.93;;;76.80;;
73172;SDS011;61388;54.962;73.394;2022-10-22T14:49:59;58.67;;;52.90;;
73172;SDS011;61388;54.962;73.394;2022-10-22T14:52:26;58.38;;;52.65;;
73172;SDS011;61388;54.962;73.394;2022-10-22T14:54:52;66.85;;;60.03;;
73172;SDS011;61388;54.962;73.394;2022-10-22T14:57:18;61.20;;;55.08;;
73172;SDS011;61388;54.962;73.394;2022-10-22T14:59:44;63.27;;;56.80;;
73172;SDS011;61388;54.962;73.394;2022-10-22T15:02:13;83.43;;;75.50;;
73172;SDS011;61388;54.962;73.394;2022-10-22T15:04:45;64.93;;;58.65;;
73172;SDS011;61388;54.962;73.394;2022-10-22T15:07:10;59.83;;;53.33;;
73172;SDS011;61388;54.962;73.394;2022-10-22T15:09:37;58.53;;;51.20;;
73172;SDS011;61388;54.962;73.394;2022-10-22T15:12:03;55.97;;;50.08;;
73172;SDS011;61388;54.962;73.394;2022-10-22T15:14:29;58.40;;;52.33;;
73172;SDS011;61388;54.962;73.394;2022-10-22T15:16:55;120.72;;;109.70;;
73172;SDS011;61388;54.962;73.394;2022-10-22T15:19:31;122.53;;;111.20;;
73172;SDS011;61388;54.962;73.394;2022-10-22T15:22:08;65.33;;;58.60;;
73172;SDS011;61388;54.962;73.394;2022-10-22T15:24:39;282.63;;;245.05;;
73172;SDS011;61388;54.962;73.394;2022-10-22T15:27:14;63.22;;;56.90;;
73172;SDS011;61388;54.962;73.394;2022-10-22T15:29:40;67.38;;;60.58;;
73172;SDS011;61388;54.962;73.394;2022-10-22T15:32:07;70.28;;;63.67;;
73172;SDS011;61388;54.962;73.394;2022-10-22T15:34:35;64.37;;;58.10;;
73172;SDS011;61388;54.962;73.394;2022-10-22T15:37:03;95.68;;;68.43;;
73172;SDS011;61388;54.962;73.394;2022-10-22T15:39:34;116.95;;;105.35;;
73172;SDS011;61388;54.962;73.394;2022-10-22T15:42:01;69.75;;;63.42;;
73172;SDS011;61388;54.962;73.394;2022-10-22T15:44:28;59.72;;;53.70;;
73172;SDS011;61388;54.962;73.394;2022-10-22T15:46:54;58.50;;;52.43;;
73172;SDS011;61388;54.962;73.394;2022-10-22T15:49:24;55.88;;;49.08;;
73172;SDS011;61388;54.962;73.394;2022-10-22T15:51:50;61.03;;;54.80;;
73172;SDS011;61388;54.962;73.394;2022-10-22T15:54:17;60.97;;;54.47;;
73172;SDS011;61388;54.962;73.394;2022-10-22T15:56:54;58.97;;;52.77;;
73172;SDS011;61388;54.962;73.394;2022-10-22T15:59:20;58.97;;;52.70;;
73172;SDS011;61388;54.962;73.394;2022-10-22T16:01:46;61.30;;;54.08;;
73172;SDS011;61388;54.962;73.394;2022-10-22T16:04:12;96.40;;;87.25;;
73172;SDS011;61388;54.962;73.394;2022-10-22T16:06:46;75.47;;;68.18;;
73172;SDS011;61388;54.962;73.394;2022-10-22T16:09:14;59.73;;;51.50;;
73172;SDS011;61388;54.962;73.394;2022-10-22T16:11:40;63.03;;;56.42;;
73172;SDS011;61388;54.962;73.394;2022-10-22T16:14:06;58.80;;;52.88;;
73172;SDS011;61388;54.962;73.394;2022-10-22T16:16:33;68.55;;;62.05;;
73172;SDS011;61388;54.962;73.394;2022-10-22T16:18:59;65.35;;;59.13;;
73172;SDS011;61388;54.962;73.394;2022-10-22T16:21:26;59.83;;;53.73;;
73172;SDS011;61388;54.962;73.394;2022-10-22T16:23:52;78.32;;;71.60;;
73172;SDS011;61388;54.962;73.394;2022-10-22T16:26:18;63.67;;;57.33;;